sensor_id;sensor_type;location;lat;lon;timestamp;P1;durP1;ratioP1;P2;durP2;ratioP2
74789;SDS011;63318;52.406;13.416;2023-03-29T00:00:05;5.10;;;2.00;;
74789;SDS011;63318;52.406;13.416;2023-03-29T00:02:36;5.80;;;2.20;;
74789;SDS011;63318;52.406;13.416;2023-03-29T00:05:06;6.60;;;2.20;;
74789;SDS011;63318;52.406;13.416;2023-03-29T00:07:35;6.00;;;2.40;;
74789;SDS011;63318;52.406;13.416;2023-03-29T00:10:04;5.00;;;2.10;;
74789;SDS011;63318;52.406;13.416;2023-03-29T00:12:34;6.10;;;2.10;;
74789;SDS011;63318;52.406;13.416;2023-03-29T00:15:04;4.60;;;2.20;;
74789;SDS011;63318;52.406;13.416;2023-03-29T00:17:34;7.30;;;2.70;;
74789;SDS011;63318;52.406;13.416;2023-03-29T00:20:04;5.40;;;2.30;;
74789;SDS011;63318;52.406;13.416;2023-03-29T00:22:34;10.10;;;2.80;;
74789;SDS011;63318;52.406;13.416;2023-03-29T00:25:04;5.70;;;2.30;;
74789;SDS011;63318;52.406;13.416;2023-03-29T00:27:33;6.50;;;2.50;;
74789;SDS011;63318;52.406;13.416;2023-03-29T00:30:03;10.70;;;2.60;;
74789;SDS011;63318;52.406;13.416;2023-03-29T00:32:33;5.00;;;1.90;;
74789;SDS011;63318;52.406;13.416;2023-03-29T00:35:02;5.00;;;2.00;;
74789;SDS011;63318;52.406;13.416;2023-03-29T00:37:31;5.50;;;2.40;;
74789;SDS011;63318;52.406;13.416;2023-03-29T00:39:59;7.30;;;2.50;;
74789;SDS011;63318;52.406;13.416;2023-03-29T00:42:28;6.10;;;2.20;;
74789;SDS011;63318;52.406;13.416;2023-03-29T00:44:58;6.60;;;2.20;;
74789;SDS011;63318;52.406;13.416;2023-03-29T00:47:30;6.60;;;2.10;;
74789;SDS011;63318;52.406;13.416;2023-03-29T00:50:04;6.00;;;2.20;;
74789;SDS011;63318;52.406;13.416;2023-03-29T00:52:37;5.50;;;2.00;;
74789;SDS011;63318;52.406;13.416;2023-03-29T00:55:09;6.70;;;2.40;;
74789;SDS011;63318;52.406;13.416;2023-03-29T00:57:42;4.80;;;2.10;;
74789;SDS011;63318;52.406;13.416;2023-03-29T01:00:13;3.90;;;2.00;;
74789;SDS011;63318;52.406;13.416;2023-03-29T01:02:44;9.50;;;2.10;;
74789;SDS011;63318;52.406;13.416;2023-03-29T01:05:17;5.70;;;2.20;;
74789;SDS011;63318;52.406;13.416;2023-03-29T01:07:50;7.10;;;2.30;;
74789;SDS011;63318;52.406;13.416;2023-03-29T01:10:26;5.40;;;2.40;;
74789;SDS011;63318;52.406;13.416;2023-03-29T01:13:04;5.00;;;1.70;;
74789;SDS011;63318;52.406;13.416;2023-03-29T01:15:36;5.70;;;2.00;;
74789;SDS011;63318;52.406;13.416;2023-03-29T01:18:07;9.00;;;2.00;;
74789;SDS011;63318;52.406;13.416;2023-03-29T01:20:42;5.70;;;1.80;;
74789;SDS011;63318;52.406;13.416;2023-03-29T01:23:31;7.10;;;1.90;;
74789;SDS011;63318;52.406;13.416;2023-03-29T01:26:12;4.30;;;1.70;;
74789;SDS011;63318;52.406;13.416;2023-03-29T01:28:49;5.10;;;1.70;;
74789;SDS011;63318;52.406;13.416;2023-03-29T01:31:23;6.30;;;1.60;;
74789;SDS011;63318;52.406;13.416;2023-03-29T01:33:57;5.50;;;2.00;;
74789;SDS011;63318;52.406;13.416;2023-03-29T01:36:32;6.30;;;2.10;;
74789;SDS011;63318;52.406;13.416;2023-03-29T01:39:05;7.70;;;2.20;;
74789;SDS011;63318;52.406;13.416;2023-03-29T01:41:37;6.20;;;1.60;;
74789;SDS011;63318;52.406;13.416;2023-03-29T01:44:12;7.50;;;2.20;;
74789;SDS011;63318;52.406;13.416;2023-03-29T01:46:46;7.30;;;1.90;;
74789;SDS011;63318;52.406;13.416;2023-03-29T01:49:20;5.50;;;1.90;;
74789;SDS011;63318;52.406;13.416;2023-03-29T01:51:54;5.20;;;1.90;;
74789;SDS011;63318;52.406;13.416;2023-03-29T01:54:26;6.80;;;1.80;;
74789;SDS011;63318;52.406;13.416;2023-03-29T01:56:58;7.40;;;2.60;;
74789;SDS011;63318;52.406;13.416;2023-03-29T01:59:30;7.50;;;2.10;;
74789;SDS011;63318;52.406;13.416;2023-03-29T02:02:04;6.80;;;2.20;;
74789;SDS011;63318;52.406;13.416;2023-03-29T02:04:38;5.00;;;2.70;;
74789;SDS011;63318;52.406;13.416;2023-03-29T02:07:10;5.60;;;2.00;;
74789;SDS011;63318;52.406;13.416;2023-03-29T02:09:41;6.00;;;2.00;;
74789;SDS011;63318;52.406;13.416;2023-03-29T02:12:11;6.90;;;2.40;;
74789;SDS011;63318;52.406;13.416;2023-03-29T02:14:42;5.70;;;2.30;;
74789;SDS011;63318;52.406;13.416;2023-03-29T02:17:17;8.60;;;2.50;;
74789;SDS011;63318;52.406;13.416;2023-03-29T02:19:51;6.40;;;2.30;;
74789;SDS011;63318;52.406;13.416;2023-03-29T02:22:23;7.00;;;3.00;;
74789;SDS011;63318;52.406;13.416;2023-03-29T02:24:59;6.30;;;2.20;;
74789;SDS011;63318;52.406;13.416;2023-03-29T02:27:29;5.50;;;2.30;;
74789;SDS011;63318;52.406;13.416;2023-03-29T02:29:58;6.30;;;2.30;;
74789;SDS011;63318;52.406;13.416;2023-03-29T02:32:27;7.30;;;2.50;;
74789;SDS011;63318;52.406;13.416;2023-03-29T02:35:03;7.70;;;2.40;;
74789;SDS011;63318;52.406;13.416;2023-03-29T02:37:38;5.70;;;2.40;;
74789;SDS011;63318;52.406;13.416;2023-03-29T02:40:10;7.80;;;2.70;;
74789;SDS011;63318;52.406;13.416;2023-03-29T02:42:41;8.90;;;3.00;;
74789;SDS011;63318;52.406;13.416;2023-03-29T02:45:14;5.00;;;2.50;;
74789;SDS011;63318;52.406;13.416;2023-03-29T02:47:45;8.80;;;3.10;;
74789;SDS011;63318;52.406;13.416;2023-03-29T02:52:45;5.50;;;2.70;;
74789;SDS011;63318;52.406;13.416;2023-03-29T02:55:21;6.80;;;3.10;;
74789;SDS011;63318;52.406;13.416;2023-03-29T02:57:51;8.20;;;3.00;;
74789;SDS011;63318;52.406;13.416;2023-03-29T03:00:20;7.40;;;3.70;;
74789;SDS011;63318;52.406;13.416;2023-03-29T03:02:49;7.80;;;3.70;;
74789;SDS011;63318;52.406;13.416;2023-03-29T03:05:17;9.80;;;3.90;;
74789;SDS011;63318;52.406;13.416;2023-03-29T03:07:45;7.30;;;3.60;;
74789;SDS011;63318;52.406;13.416;2023-03-29T03:10:13;7.00;;;3.60;;
74789;SDS011;63318;52.406;13.416;2023-03-29T03:12:42;11.20;;;4.60;;
74789;SDS011;63318;52.406;13.416;2023-03-29T03:15:11;7.80;;;4.30;;
74789;SDS011;63318;52.406;13.416;2023-03-29T03:17:40;7.90;;;4.20;;
74789;SDS011;63318;52.406;13.416;2023-03-29T03:20:09;8.60;;;4.30;;
74789;SDS011;63318;52.406;13.416;2023-03-29T03:22:39;8.40;;;4.50;;
74789;SDS011;63318;52.406;13.416;2023-03-29T03:25:08;10.10;;;4.90;;
74789;SDS011;63318;52.406;13.416;2023-03-29T03:27:37;10.90;;;4.80;;
74789;SDS011;63318;52.406;13.416;2023-03-29T03:30:06;10.40;;;5.00;;
74789;SDS011;63318;52.406;13.416;2023-03-29T03:32:36;8.60;;;5.00;;
74789;SDS011;63318;52.406;13.416;2023-03-29T03:35:05;10.80;;;4.90;;
74789;SDS011;63318;52.406;13.416;2023-03-29T03:37:34;8.80;;;5.20;;
74789;SDS011;63318;52.406;13.416;2023-03-29T03:40:03;9.20;;;4.70;;
74789;SDS011;63318;52.406;13.416;2023-03-29T03:42:33;9.60;;;4.40;;
74789;SDS011;63318;52.406;13.416;2023-03-29T03:45:01;8.50;;;4.10;;
74789;SDS011;63318;52.406;13.416;2023-03-29T03:47:30;7.30;;;3.90;;
74789;SDS011;63318;52.406;13.416;2023-03-29T03:49:58;8.70;;;4.10;;
74789;SDS011;63318;52.406;13.416;2023-03-29T03:52:27;8.80;;;4.20;;
74789;SDS011;63318;52.406;13.416;2023-03-29T03:54:55;7.60;;;3.50;;
74789;SDS011;63318;52.406;13.416;2023-03-29T03:57:24;7.50;;;3.50;;
74789;SDS011;63318;52.406;13.416;2023-03-29T03:59:52;5.40;;;3.30;;
74789;SDS011;63318;52.406;13.416;2023-03-29T04:02:20;7.00;;;3.60;;
74789;SDS011;63318;52.406;13.416;2023-03-29T04:04:49;12.80;;;3.80;;
74789;SDS011;63318;52.406;13.416;2023-03-29T04:07:17;10.50;;;3.40;;
74789;SDS011;63318;52.406;13.416;2023-03-29T04:09:45;9.40;;;3.40;;
74789;SDS011;63318;52.406;13.416;2023-03-29T04:12:14;10.40;;;3.30;;
74789;SDS011;63318;52.406;13.416;2023-03-29T04:14:42;5.20;;;2.50;;
74789;SDS011;63318;52.406;13.416;2023-03-29T04:17:10;7.10;;;3.10;;
74789;SDS011;63318;52.406;13.416;2023-03-29T04:19:38;8.00;;;3.00;;
74789;SDS011;63318;52.406;13.416;2023-03-29T04:22:07;6.30;;;2.20;;
74789;SDS011;63318;52.406;13.416;2023-03-29T04:24:35;4.10;;;2.00;;
74789;SDS011;63318;52.406;13.416;2023-03-29T04:27:03;6.50;;;2.50;;
74789;SDS011;63318;52.406;13.416;2023-03-29T04:29:33;8.10;;;2.80;;
74789;SDS011;63318;52.406;13.416;2023-03-29T04:32:02;5.50;;;2.30;;
74789;SDS011;63318;52.406;13.416;2023-03-29T04:34:31;5.00;;;2.50;;
74789;SDS011;63318;52.406;13.416;2023-03-29T04:36:59;8.90;;;2.60;;
74789;SDS011;63318;52.406;13.416;2023-03-29T04:39:28;7.70;;;2.40;;
74789;SDS011;63318;52.406;13.416;2023-03-29T04:41:56;9.00;;;3.10;;
74789;SDS011;63318;52.406;13.416;2023-03-29T04:44:26;9.40;;;3.00;;
74789;SDS011;63318;52.406;13.416;2023-03-29T04:46:55;12.00;;;3.00;;
74789;SDS011;63318;52.406;13.416;2023-03-29T04:49:24;7.50;;;2.50;;
74789;SDS011;63318;52.406;13.416;2023-03-29T04:51:54;5.70;;;2.40;;
74789;SDS011;63318;52.406;13.416;2023-03-29T04:54:25;6.90;;;2.40;;
74789;SDS011;63318;52.406;13.416;2023-03-29T04:56:53;10.10;;;3.00;;
74789;SDS011;63318;52.406;13.416;2023-03-29T04:59:22;6.90;;;2.50;;
74789;SDS011;63318;52.406;13.416;2023-03-29T05:01:51;9.90;;;2.80;;
74789;SDS011;63318;52.406;13.416;2023-03-29T05:04:19;6.70;;;2.50;;
74789;SDS011;63318;52.406;13.416;2023-03-29T05:06:48;11.80;;;2.60;;
74789;SDS011;63318;52.406;13.416;2023-03-29T05:09:16;9.30;;;3.30;;
74789;SDS011;63318;52.406;13.416;2023-03-29T05:11:45;7.40;;;2.80;;
74789;SDS011;63318;52.406;13.416;2023-03-29T05:14:13;6.30;;;2.80;;
74789;SDS011;63318;52.406;13.416;2023-03-29T05:16:42;8.50;;;2.80;;
74789;SDS011;63318;52.406;13.416;2023-03-29T05:19:11;8.00;;;2.50;;
74789;SDS011;63318;52.406;13.416;2023-03-29T05:21:41;7.90;;;3.00;;
74789;SDS011;63318;52.406;13.416;2023-03-29T05:24:10;9.70;;;2.90;;
74789;SDS011;63318;52.406;13.416;2023-03-29T05:26:38;10.50;;;3.30;;
74789;SDS011;63318;52.406;13.416;2023-03-29T05:29:07;6.00;;;2.60;;
74789;SDS011;63318;52.406;13.416;2023-03-29T05:31:36;9.60;;;3.10;;
74789;SDS011;63318;52.406;13.416;2023-03-29T05:34:04;7.00;;;2.80;;
74789;SDS011;63318;52.406;13.416;2023-03-29T05:36:33;9.20;;;3.10;;
74789;SDS011;63318;52.406;13.416;2023-03-29T05:39:02;9.80;;;3.00;;
74789;SDS011;63318;52.406;13.416;2023-03-29T05:41:31;7.00;;;2.90;;
74789;SDS011;63318;52.406;13.416;2023-03-29T05:43:59;8.60;;;2.90;;
74789;SDS011;63318;52.406;13.416;2023-03-29T05:46:27;8.80;;;2.60;;
74789;SDS011;63318;52.406;13.416;2023-03-29T05:48:56;7.50;;;3.10;;
74789;SDS011;63318;52.406;13.416;2023-03-29T05:51:24;10.60;;;3.00;;
74789;SDS011;63318;52.406;13.416;2023-03-29T05:53:53;8.00;;;2.90;;
74789;SDS011;63318;52.406;13.416;2023-03-29T05:56:21;6.50;;;2.80;;
74789;SDS011;63318;52.406;13.416;2023-03-29T05:58:51;9.40;;;3.10;;
74789;SDS011;63318;52.406;13.416;2023-03-29T06:01:21;10.00;;;3.00;;
74789;SDS011;63318;52.406;13.416;2023-03-29T06:03:49;8.00;;;3.00;;
74789;SDS011;63318;52.406;13.416;2023-03-29T06:06:18;7.80;;;3.00;;
74789;SDS011;63318;52.406;13.416;2023-03-29T06:08:47;9.20;;;3.10;;
74789;SDS011;63318;52.406;13.416;2023-03-29T06:11:16;7.60;;;3.20;;
74789;SDS011;63318;52.406;13.416;2023-03-29T06:13:44;6.50;;;2.90;;
74789;SDS011;63318;52.406;13.416;2023-03-29T06:16:13;8.20;;;2.80;;
74789;SDS011;63318;52.406;13.416;2023-03-29T06:18:41;7.50;;;2.80;;
74789;SDS011;63318;52.406;13.416;2023-03-29T06:21:10;10.60;;;2.60;;
74789;SDS011;63318;52.406;13.416;2023-03-29T06:23:38;6.60;;;2.70;;
74789;SDS011;63318;52.406;13.416;2023-03-29T06:26:07;9.10;;;3.20;;
74789;SDS011;63318;52.406;13.416;2023-03-29T06:28:36;6.10;;;2.60;;
74789;SDS011;63318;52.406;13.416;2023-03-29T06:31:04;7.30;;;3.10;;
74789;SDS011;63318;52.406;13.416;2023-03-29T06:33:33;6.10;;;2.80;;
74789;SDS011;63318;52.406;13.416;2023-03-29T06:36:02;8.50;;;2.70;;
74789;SDS011;63318;52.406;13.416;2023-03-29T06:38:31;6.30;;;2.80;;
74789;SDS011;63318;52.406;13.416;2023-03-29T06:41:02;8.30;;;2.90;;
74789;SDS011;63318;52.406;13.416;2023-03-29T06:43:32;11.90;;;3.40;;
74789;SDS011;63318;52.406;13.416;2023-03-29T06:46:01;9.70;;;3.40;;
74789;SDS011;63318;52.406;13.416;2023-03-29T06:48:30;6.50;;;2.60;;
74789;SDS011;63318;52.406;13.416;2023-03-29T06:50:58;7.90;;;3.00;;
74789;SDS011;63318;52.406;13.416;2023-03-29T06:53:28;12.10;;;3.70;;
74789;SDS011;63318;52.406;13.416;2023-03-29T06:55:57;10.80;;;2.90;;
74789;SDS011;63318;52.406;13.416;2023-03-29T06:58:25;8.90;;;3.40;;
74789;SDS011;63318;52.406;13.416;2023-03-29T07:00:54;8.70;;;3.10;;
74789;SDS011;63318;52.406;13.416;2023-03-29T07:03:27;7.30;;;3.10;;
74789;SDS011;63318;52.406;13.416;2023-03-29T07:06:00;7.70;;;2.70;;
74789;SDS011;63318;52.406;13.416;2023-03-29T07:08:30;6.50;;;3.20;;
74789;SDS011;63318;52.406;13.416;2023-03-29T07:10:58;9.80;;;3.80;;
74789;SDS011;63318;52.406;13.416;2023-03-29T07:13:26;13.80;;;3.90;;
74789;SDS011;63318;52.406;13.416;2023-03-29T07:15:55;9.60;;;3.40;;
74789;SDS011;63318;52.406;13.416;2023-03-29T07:18:24;9.60;;;3.30;;
74789;SDS011;63318;52.406;13.416;2023-03-29T07:20:53;7.30;;;3.40;;
74789;SDS011;63318;52.406;13.416;2023-03-29T07:23:21;6.90;;;3.40;;
74789;SDS011;63318;52.406;13.416;2023-03-29T07:25:49;8.60;;;3.80;;
74789;SDS011;63318;52.406;13.416;2023-03-29T07:28:18;11.50;;;3.20;;
74789;SDS011;63318;52.406;13.416;2023-03-29T07:30:48;6.30;;;2.50;;
74789;SDS011;63318;52.406;13.416;2023-03-29T07:33:16;6.70;;;2.30;;
74789;SDS011;63318;52.406;13.416;2023-03-29T07:35:46;7.90;;;3.20;;
74789;SDS011;63318;52.406;13.416;2023-03-29T07:38:14;9.00;;;3.50;;
74789;SDS011;63318;52.406;13.416;2023-03-29T07:40:43;6.60;;;3.00;;
74789;SDS011;63318;52.406;13.416;2023-03-29T07:43:11;5.80;;;2.70;;
74789;SDS011;63318;52.406;13.416;2023-03-29T07:45:39;5.10;;;1.90;;
74789;SDS011;63318;52.406;13.416;2023-03-29T07:48:08;8.10;;;2.60;;
74789;SDS011;63318;52.406;13.416;2023-03-29T07:50:36;6.40;;;2.30;;
74789;SDS011;63318;52.406;13.416;2023-03-29T07:53:05;5.50;;;2.30;;
74789;SDS011;63318;52.406;13.416;2023-03-29T07:55:34;8.40;;;2.30;;
74789;SDS011;63318;52.406;13.416;2023-03-29T07:58:02;4.60;;;1.60;;
74789;SDS011;63318;52.406;13.416;2023-03-29T08:00:31;8.50;;;2.70;;
74789;SDS011;63318;52.406;13.416;2023-03-29T08:02:59;7.30;;;2.30;;
74789;SDS011;63318;52.406;13.416;2023-03-29T08:05:28;7.70;;;2.40;;
74789;SDS011;63318;52.406;13.416;2023-03-29T08:07:56;3.40;;;1.60;;
74789;SDS011;63318;52.406;13.416;2023-03-29T08:10:25;4.40;;;2.00;;
74789;SDS011;63318;52.406;13.416;2023-03-29T08:12:54;5.30;;;2.20;;
74789;SDS011;63318;52.406;13.416;2023-03-29T08:15:24;6.30;;;2.50;;
74789;SDS011;63318;52.406;13.416;2023-03-29T08:17:52;4.90;;;2.10;;
74789;SDS011;63318;52.406;13.416;2023-03-29T08:20:21;5.20;;;1.80;;
74789;SDS011;63318;52.406;13.416;2023-03-29T08:22:50;7.80;;;2.00;;
74789;SDS011;63318;52.406;13.416;2023-03-29T08:25:19;5.00;;;2.10;;
74789;SDS011;63318;52.406;13.416;2023-03-29T08:27:49;5.90;;;2.10;;
74789;SDS011;63318;52.406;13.416;2023-03-29T08:30:18;5.90;;;2.10;;
74789;SDS011;63318;52.406;13.416;2023-03-29T08:32:48;6.20;;;2.40;;
74789;SDS011;63318;52.406;13.416;2023-03-29T08:35:17;6.30;;;2.40;;
74789;SDS011;63318;52.406;13.416;2023-03-29T08:37:47;4.80;;;1.90;;
74789;SDS011;63318;52.406;13.416;2023-03-29T08:40:15;4.00;;;1.90;;
74789;SDS011;63318;52.406;13.416;2023-03-29T08:43:00;8.00;;;2.30;;
74789;SDS011;63318;52.406;13.416;2023-03-29T08:45:48;6.50;;;2.30;;
74789;SDS011;63318;52.406;13.416;2023-03-29T08:48:26;7.80;;;3.20;;
74789;SDS011;63318;52.406;13.416;2023-03-29T08:50:58;5.60;;;2.10;;
74789;SDS011;63318;52.406;13.416;2023-03-29T08:53:29;6.60;;;2.20;;
74789;SDS011;63318;52.406;13.416;2023-03-29T08:56:02;8.10;;;2.30;;
74789;SDS011;63318;52.406;13.416;2023-03-29T08:58:35;5.80;;;2.10;;
74789;SDS011;63318;52.406;13.416;2023-03-29T09:01:05;4.80;;;2.00;;
74789;SDS011;63318;52.406;13.416;2023-03-29T09:03:37;6.50;;;2.20;;
74789;SDS011;63318;52.406;13.416;2023-03-29T09:06:10;6.90;;;2.00;;
74789;SDS011;63318;52.406;13.416;2023-03-29T09:08:39;5.40;;;2.30;;
74789;SDS011;63318;52.406;13.416;2023-03-29T09:11:15;6.70;;;2.30;;
74789;SDS011;63318;52.406;13.416;2023-03-29T09:13:59;6.20;;;2.10;;
74789;SDS011;63318;52.406;13.416;2023-03-29T09:16:35;4.80;;;2.20;;
74789;SDS011;63318;52.406;13.416;2023-03-29T09:19:13;6.70;;;2.00;;
74789;SDS011;63318;52.406;13.416;2023-03-29T09:21:53;4.00;;;2.10;;
74789;SDS011;63318;52.406;13.416;2023-03-29T09:24:35;4.60;;;2.10;;
74789;SDS011;63318;52.406;13.416;2023-03-29T09:27:13;5.00;;;2.10;;
74789;SDS011;63318;52.406;13.416;2023-03-29T09:32:38;5.40;;;2.30;;
74789;SDS011;63318;52.406;13.416;2023-03-29T09:35:15;3.80;;;2.20;;
74789;SDS011;63318;52.406;13.416;2023-03-29T09:37:47;4.70;;;2.20;;
74789;SDS011;63318;52.406;13.416;2023-03-29T09:40:19;3.70;;;1.70;;
74789;SDS011;63318;52.406;13.416;2023-03-29T09:42:51;5.40;;;2.00;;
74789;SDS011;63318;52.406;13.416;2023-03-29T09:45:23;7.30;;;2.20;;
74789;SDS011;63318;52.406;13.416;2023-03-29T09:47:53;4.00;;;2.00;;
74789;SDS011;63318;52.406;13.416;2023-03-29T09:50:25;5.50;;;2.20;;
74789;SDS011;63318;52.406;13.416;2023-03-29T09:52:58;3.90;;;2.00;;
74789;SDS011;63318;52.406;13.416;2023-03-29T09:55:29;6.10;;;2.10;;
74789;SDS011;63318;52.406;13.416;2023-03-29T09:57:59;6.00;;;2.20;;
74789;SDS011;63318;52.406;13.416;2023-03-29T10:00:36;4.20;;;2.00;;
74789;SDS011;63318;52.406;13.416;2023-03-29T10:03:06;8.70;;;2.60;;
74789;SDS011;63318;52.406;13.416;2023-03-29T10:05:35;4.10;;;1.80;;
74789;SDS011;63318;52.406;13.416;2023-03-29T10:08:12;5.50;;;1.90;;
74789;SDS011;63318;52.406;13.416;2023-03-29T10:10:46;5.10;;;2.10;;
74789;SDS011;63318;52.406;13.416;2023-03-29T10:13:17;5.20;;;1.90;;
74789;SDS011;63318;52.406;13.416;2023-03-29T10:15:59;4.60;;;2.10;;
74789;SDS011;63318;52.406;13.416;2023-03-29T10:18:30;4.80;;;2.60;;
74789;SDS011;63318;52.406;13.416;2023-03-29T10:21:00;5.90;;;2.60;;
74789;SDS011;63318;52.406;13.416;2023-03-29T10:23:30;5.10;;;2.20;;
74789;SDS011;63318;52.406;13.416;2023-03-29T10:26:00;6.30;;;2.40;;
74789;SDS011;63318;52.406;13.416;2023-03-29T10:28:31;9.00;;;2.30;;
74789;SDS011;63318;52.406;13.416;2023-03-29T10:31:02;5.60;;;2.10;;
74789;SDS011;63318;52.406;13.416;2023-03-29T10:33:32;6.30;;;2.10;;
74789;SDS011;63318;52.406;13.416;2023-03-29T10:36:03;5.40;;;2.60;;
74789;SDS011;63318;52.406;13.416;2023-03-29T10:38:37;6.60;;;2.10;;
74789;SDS011;63318;52.406;13.416;2023-03-29T10:41:09;5.40;;;2.50;;
74789;SDS011;63318;52.406;13.416;2023-03-29T10:43:43;4.50;;;2.40;;
74789;SDS011;63318;52.406;13.416;2023-03-29T10:46:18;4.80;;;2.20;;
74789;SDS011;63318;52.406;13.416;2023-03-29T10:48:50;7.00;;;3.60;;
74789;SDS011;63318;52.406;13.416;2023-03-29T10:51:22;5.30;;;2.70;;
74789;SDS011;63318;52.406;13.416;2023-03-29T10:53:53;4.90;;;2.20;;
74789;SDS011;63318;52.406;13.416;2023-03-29T10:56:35;4.20;;;2.50;;
74789;SDS011;63318;52.406;13.416;2023-03-29T10:59:36;4.10;;;2.20;;
74789;SDS011;63318;52.406;13.416;2023-03-29T11:05:28;4.40;;;2.20;;
74789;SDS011;63318;52.406;13.416;2023-03-29T11:08:14;6.10;;;2.40;;
74789;SDS011;63318;52.406;13.416;2023-03-29T11:10:54;5.90;;;2.30;;
74789;SDS011;63318;52.406;13.416;2023-03-29T11:13:32;3.80;;;2.10;;
74789;SDS011;63318;52.406;13.416;2023-03-29T11:16:11;4.00;;;2.10;;
74789;SDS011;63318;52.406;13.416;2023-03-29T11:18:51;4.70;;;2.00;;
74789;SDS011;63318;52.406;13.416;2023-03-29T11:21:39;6.00;;;2.40;;
74789;SDS011;63318;52.406;13.416;2023-03-29T11:24:25;4.50;;;2.20;;
74789;SDS011;63318;52.406;13.416;2023-03-29T11:27:15;5.00;;;2.70;;
74789;SDS011;63318;52.406;13.416;2023-03-29T11:29:58;9.30;;;2.90;;
74789;SDS011;63318;52.406;13.416;2023-03-29T11:32:33;7.30;;;3.00;;
74789;SDS011;63318;52.406;13.416;2023-03-29T11:35:15;4.70;;;2.90;;
74789;SDS011;63318;52.406;13.416;2023-03-29T11:37:54;9.20;;;3.10;;
74789;SDS011;63318;52.406;13.416;2023-03-29T11:40:33;5.10;;;2.70;;
74789;SDS011;63318;52.406;13.416;2023-03-29T11:43:12;7.50;;;3.00;;
74789;SDS011;63318;52.406;13.416;2023-03-29T11:45:48;5.50;;;2.40;;
74789;SDS011;63318;52.406;13.416;2023-03-29T11:48:21;5.20;;;2.50;;
74789;SDS011;63318;52.406;13.416;2023-03-29T11:50:56;6.80;;;2.70;;
74789;SDS011;63318;52.406;13.416;2023-03-29T11:53:30;5.30;;;2.30;;
74789;SDS011;63318;52.406;13.416;2023-03-29T11:56:05;5.70;;;3.00;;
74789;SDS011;63318;52.406;13.416;2023-03-29T11:58:38;5.90;;;3.00;;
74789;SDS011;63318;52.406;13.416;2023-03-29T12:01:11;6.50;;;2.50;;
74789;SDS011;63318;52.406;13.416;2023-03-29T12:03:45;4.30;;;2.50;;
74789;SDS011;63318;52.406;13.416;2023-03-29T12:06:19;4.00;;;2.40;;
74789;SDS011;63318;52.406;13.416;2023-03-29T12:08:53;5.60;;;2.70;;
74789;SDS011;63318;52.406;13.416;2023-03-29T12:11:27;4.10;;;2.30;;
74789;SDS011;63318;52.406;13.416;2023-03-29T12:14:01;5.40;;;2.60;;
74789;SDS011;63318;52.406;13.416;2023-03-29T12:16:38;4.90;;;2.80;;
74789;SDS011;63318;52.406;13.416;2023-03-29T12:19:13;6.40;;;2.60;;
74789;SDS011;63318;52.406;13.416;2023-03-29T12:21:44;4.70;;;2.70;;
74789;SDS011;63318;52.406;13.416;2023-03-29T12:24:14;5.10;;;2.40;;
74789;SDS011;63318;52.406;13.416;2023-03-29T12:29:51;5.70;;;2.70;;
74789;SDS011;63318;52.406;13.416;2023-03-29T12:32:39;5.70;;;2.70;;
74789;SDS011;63318;52.406;13.416;2023-03-29T12:35:29;6.50;;;2.30;;
74789;SDS011;63318;52.406;13.416;2023-03-29T12:38:08;5.60;;;2.80;;
74789;SDS011;63318;52.406;13.416;2023-03-29T12:40:43;5.40;;;2.70;;
74789;SDS011;63318;52.406;13.416;2023-03-29T12:43:21;6.10;;;2.70;;
74789;SDS011;63318;52.406;13.416;2023-03-29T12:45:53;5.40;;;2.30;;
74789;SDS011;63318;52.406;13.416;2023-03-29T12:48:27;5.40;;;2.70;;
74789;SDS011;63318;52.406;13.416;2023-03-29T12:51:00;5.80;;;2.40;;
74789;SDS011;63318;52.406;13.416;2023-03-29T12:53:33;4.30;;;2.20;;
74789;SDS011;63318;52.406;13.416;2023-03-29T12:56:08;5.60;;;2.40;;
74789;SDS011;63318;52.406;13.416;2023-03-29T13:01:50;5.20;;;2.30;;
74789;SDS011;63318;52.406;13.416;2023-03-29T13:04:34;6.70;;;2.90;;
74789;SDS011;63318;52.406;13.416;2023-03-29T13:07:14;5.20;;;2.30;;
74789;SDS011;63318;52.406;13.416;2023-03-29T13:09:56;8.40;;;2.60;;
74789;SDS011;63318;52.406;13.416;2023-03-29T13:12:27;5.10;;;2.60;;
74789;SDS011;63318;52.406;13.416;2023-03-29T13:15:02;6.60;;;2.90;;
74789;SDS011;63318;52.406;13.416;2023-03-29T13:17:39;6.40;;;2.90;;
74789;SDS011;63318;52.406;13.416;2023-03-29T13:20:23;4.30;;;2.60;;
74789;SDS011;63318;52.406;13.416;2023-03-29T13:23:09;6.00;;;3.20;;
74789;SDS011;63318;52.406;13.416;2023-03-29T13:25:54;7.40;;;2.90;;
74789;SDS011;63318;52.406;13.416;2023-03-29T13:28:48;5.40;;;2.90;;
74789;SDS011;63318;52.406;13.416;2023-03-29T13:31:29;5.30;;;2.60;;
74789;SDS011;63318;52.406;13.416;2023-03-29T13:34:05;5.50;;;3.00;;
74789;SDS011;63318;52.406;13.416;2023-03-29T13:36:48;5.70;;;2.50;;
74789;SDS011;63318;52.406;13.416;2023-03-29T13:39:26;7.00;;;2.50;;
74789;SDS011;63318;52.406;13.416;2023-03-29T13:42:06;5.40;;;2.90;;
74789;SDS011;63318;52.406;13.416;2023-03-29T13:44:45;5.50;;;2.60;;
74789;SDS011;63318;52.406;13.416;2023-03-29T13:47:26;5.50;;;2.80;;
74789;SDS011;63318;52.406;13.416;2023-03-29T13:50:04;5.90;;;3.30;;
74789;SDS011;63318;52.406;13.416;2023-03-29T13:52:38;6.40;;;2.60;;
74789;SDS011;63318;52.406;13.416;2023-03-29T13:55:13;5.10;;;2.90;;
74789;SDS011;63318;52.406;13.416;2023-03-29T13:57:48;4.60;;;2.40;;
74789;SDS011;63318;52.406;13.416;2023-03-29T14:00:20;5.60;;;2.60;;
74789;SDS011;63318;52.406;13.416;2023-03-29T14:02:54;5.60;;;2.50;;
74789;SDS011;63318;52.406;13.416;2023-03-29T14:05:25;5.80;;;2.80;;
74789;SDS011;63318;52.406;13.416;2023-03-29T14:08:00;8.20;;;2.30;;
74789;SDS011;63318;52.406;13.416;2023-03-29T14:10:36;7.10;;;2.50;;
74789;SDS011;63318;52.406;13.416;2023-03-29T14:13:11;5.00;;;2.20;;
74789;SDS011;63318;52.406;13.416;2023-03-29T14:15:43;6.60;;;2.70;;
74789;SDS011;63318;52.406;13.416;2023-03-29T14:18:15;5.70;;;2.70;;
74789;SDS011;63318;52.406;13.416;2023-03-29T14:20:47;5.70;;;2.60;;
74789;SDS011;63318;52.406;13.416;2023-03-29T14:23:30;5.10;;;2.40;;
74789;SDS011;63318;52.406;13.416;2023-03-29T14:26:06;4.40;;;2.70;;
74789;SDS011;63318;52.406;13.416;2023-03-29T14:28:44;6.80;;;2.80;;
74789;SDS011;63318;52.406;13.416;2023-03-29T14:31:18;4.70;;;2.30;;
74789;SDS011;63318;52.406;13.416;2023-03-29T14:33:51;5.10;;;2.80;;
74789;SDS011;63318;52.406;13.416;2023-03-29T14:36:22;4.50;;;2.70;;
74789;SDS011;63318;52.406;13.416;2023-03-29T14:38:53;6.00;;;3.00;;
74789;SDS011;63318;52.406;13.416;2023-03-29T14:41:28;7.30;;;2.80;;
74789;SDS011;63318;52.406;13.416;2023-03-29T14:44:00;8.30;;;3.30;;
74789;SDS011;63318;52.406;13.416;2023-03-29T14:46:30;6.50;;;3.10;;
74789;SDS011;63318;52.406;13.416;2023-03-29T14:48:59;7.50;;;3.70;;
74789;SDS011;63318;52.406;13.416;2023-03-29T14:51:29;6.40;;;3.50;;
74789;SDS011;63318;52.406;13.416;2023-03-29T14:53:58;6.10;;;3.20;;
74789;SDS011;63318;52.406;13.416;2023-03-29T14:56:29;7.20;;;3.40;;
74789;SDS011;63318;52.406;13.416;2023-03-29T14:58:59;5.70;;;2.90;;
74789;SDS011;63318;52.406;13.416;2023-03-29T15:01:29;6.60;;;3.10;;
74789;SDS011;63318;52.406;13.416;2023-03-29T15:04:02;7.40;;;3.40;;
74789;SDS011;63318;52.406;13.416;2023-03-29T15:06:35;5.40;;;2.80;;
74789;SDS011;63318;52.406;13.416;2023-03-29T15:09:06;6.10;;;3.00;;
74789;SDS011;63318;52.406;13.416;2023-03-29T15:11:40;6.20;;;3.40;;
74789;SDS011;63318;52.406;13.416;2023-03-29T15:14:15;7.10;;;3.90;;
74789;SDS011;63318;52.406;13.416;2023-03-29T15:19:16;6.50;;;3.20;;